createdAt,value
2022-10-08T00:03:56.224Z,2.50
2022-10-08T00:09:02.203Z,2.83
2022-10-08T00:14:05.858Z,2.85
2022-10-08T00:19:11.963Z,2.88
2022-10-08T00:24:18.275Z,2.50
2022-10-08T00:29:22.551Z,2.72
2022-10-08T00:34:25.473Z,2.40
2022-10-08T00:39:29.619Z,2.65
2022-10-08T00:44:55.054Z,2.80
2022-10-08T00:50:00.204Z,2.75
2022-10-08T00:55:07.439Z,2.97
2022-10-08T01:00:14.305Z,2.95
2022-10-08T01:05:20.670Z,2.65
2022-10-08T01:10:34.005Z,2.97
2022-10-08T01:15:42.474Z,3.05
2022-10-08T01:20:53.135Z,2.90
2022-10-08T01:26:04.824Z,2.72
2022-10-08T01:31:12.462Z,2.40
2022-10-08T01:36:18.489Z,2.97
2022-10-08T01:41:25.234Z,2.47
2022-10-08T01:46:32.725Z,2.95
2022-10-08T01:51:41.805Z,2.95
2022-10-08T01:56:47.060Z,2.83
2022-10-08T02:01:56.412Z,3.20
2022-10-08T02:07:02.072Z,2.78
2022-10-08T02:12:05.991Z,2.75
2022-10-08T02:17:23.780Z,3.20
2022-10-08T02:22:34.257Z,2.77
2022-10-08T02:27:45.309Z,2.47
2022-10-08T02:33:09.849Z,2.42
2022-10-08T02:38:18.426Z,3.45
2022-10-08T02:43:25.581Z,3.15
2022-10-08T02:48:32.611Z,2.60
2022-10-08T02:53:39.052Z,3.03
2022-10-08T02:58:43.141Z,2.95
2022-10-08T03:03:53.628Z,2.53
2022-10-08T03:08:59.096Z,2.35
2022-10-08T03:14:05.508Z,3.47
2022-10-08T03:19:12.230Z,3.10
2022-10-08T03:24:16.719Z,3.40
2022-10-08T03:29:19.515Z,2.85
2022-10-08T03:34:25.669Z,2.95
2022-10-08T03:39:28.422Z,2.38
2022-10-08T03:44:31.184Z,2.33
2022-10-08T03:49:35.794Z,2.55
2022-10-08T03:54:39.058Z,2.85
2022-10-08T03:59:41.763Z,3.10
2022-10-08T04:04:45.842Z,3.03
2022-10-08T04:09:48.644Z,3.08
2022-10-08T04:14:51.387Z,2.90
2022-10-08T04:19:57.206Z,3.00
2022-10-08T04:25:00.017Z,2.75
2022-10-08T04:30:02.783Z,2.92
2022-10-08T04:35:10.620Z,2.90
2022-10-08T04:40:13.359Z,3.05
2022-10-08T04:45:16.219Z,2.97
2022-10-08T04:50:20.421Z,3.28
2022-10-08T04:55:24.777Z,3.20
2022-10-08T05:00:27.997Z,2.85
2022-10-08T05:05:32.133Z,3.33
2022-10-08T05:10:35.190Z,3.30
2022-10-08T05:15:37.935Z,3.40
2022-10-08T05:20:42.128Z,3.72
2022-10-08T05:25:44.855Z,3.72
2022-10-08T05:30:47.633Z,4.20
2022-10-08T05:35:52.125Z,3.40
2022-10-08T05:40:54.822Z,3.38
2022-10-08T05:45:58.888Z,4.10
2022-10-08T05:51:07.626Z,3.60
2022-10-08T05:56:12.977Z,3.35
2022-10-08T06:01:17.342Z,3.30
2022-10-08T06:06:22.713Z,3.30
2022-10-08T06:11:25.728Z,3.25
2022-10-08T06:16:30.667Z,3.47
2022-10-08T06:21:35.919Z,3.05
2022-10-08T06:26:40.440Z,4.40
2022-10-08T06:31:45.601Z,3.30
2022-10-08T06:36:50.037Z,3.08
2022-10-08T06:41:52.828Z,3.33
2022-10-08T06:46:56.494Z,2.78
2022-10-08T06:52:00.656Z,2.90
2022-10-08T06:57:03.405Z,2.70
2022-10-08T07:02:06.209Z,3.30
2022-10-08T07:07:10.329Z,2.67
2022-10-08T07:12:14.766Z,2.67
2022-10-08T07:17:17.657Z,2.78
2022-10-08T07:22:22.155Z,2.58
2022-10-08T07:27:24.939Z,2.33
2022-10-08T07:32:27.703Z,2.42
2022-10-08T07:37:31.801Z,2.83
2022-10-08T07:42:34.664Z,2.20
2022-10-08T07:47:37.454Z,2.75
2022-10-08T07:52:41.582Z,3.30
2022-10-08T07:57:44.303Z,2.22
2022-10-08T08:02:49.366Z,2.10
2022-10-08T08:07:53.807Z,2.45
2022-10-08T08:12:56.552Z,2.90
2022-10-08T08:17:59.571Z,2.28
2022-10-08T08:23:03.650Z,1.90
2022-10-08T08:28:06.469Z,2.42
2022-10-08T08:33:09.250Z,2.10
2022-10-08T08:38:13.393Z,2.03
2022-10-08T08:43:16.750Z,1.90
2022-10-08T08:48:24.425Z,2.00
2022-10-08T08:53:29.013Z,1.90
2022-10-08T08:58:37.357Z,1.95
2022-10-08T09:03:43.753Z,1.60
2022-10-08T09:08:51.936Z,2.40
2022-10-08T09:19:00.476Z,2.17
2022-10-08T09:24:04.727Z,1.88
2022-10-08T09:29:07.500Z,1.75
2022-10-08T09:34:18.812Z,1.83
2022-10-08T09:39:25.113Z,1.70
2022-10-08T09:44:27.924Z,1.70
2022-10-08T09:49:32.825Z,1.23
2022-10-08T09:54:43.234Z,1.30
2022-10-08T09:59:52.388Z,1.20
2022-10-08T10:04:56.514Z,1.00
2022-10-08T10:10:03.441Z,1.10
2022-10-08T10:15:16.187Z,0.90
2022-10-08T10:20:23.181Z,0.88
2022-10-08T10:25:35.792Z,0.98
2022-10-08T10:30:50.958Z,1.25
2022-10-08T10:35:56.967Z,1.00
2022-10-08T10:41:12.513Z,1.40
2022-10-08T10:46:32.522Z,1.25
2022-10-08T10:51:57.971Z,1.10
2022-10-08T10:57:05.957Z,0.77
2022-10-08T11:02:17.860Z,1.15
2022-10-08T11:07:50.741Z,1.05
2022-10-08T11:13:01.284Z,0.90
2022-10-08T11:18:19.017Z,1.17
2022-10-08T11:23:36.172Z,1.03
2022-10-08T11:28:50.228Z,0.95
2022-10-08T11:33:56.785Z,1.05
2022-10-08T11:39:11.669Z,0.70
2022-10-08T11:44:18.176Z,0.65
2022-10-08T11:49:50.797Z,0.50
2022-10-08T11:54:55.964Z,0.80
2022-10-08T12:00:08.319Z,0.55
2022-10-08T12:05:30.366Z,0.68
2022-10-08T12:10:34.850Z,0.80
2022-10-08T12:16:06.861Z,0.80
2022-10-08T12:21:54.039Z,1.35
2022-10-08T12:27:41.237Z,0.80
2022-10-08T12:32:58.123Z,0.93
2022-10-08T12:38:09.902Z,0.90
2022-10-08T12:43:22.280Z,1.05
2022-10-08T12:48:36.075Z,1.20
2022-10-08T12:53:44.787Z,1.20
2022-10-08T12:58:49.394Z,1.20
2022-10-08T13:04:17.026Z,1.00
2022-10-08T13:09:27.089Z,1.38
2022-10-08T13:14:33.252Z,1.10
2022-10-08T13:19:39.299Z,0.88
2022-10-08T13:24:44.057Z,0.98
2022-10-08T13:29:46.827Z,1.35
2022-10-08T13:34:53.215Z,1.40
2022-10-08T13:39:57.508Z,0.75
2022-10-08T13:45:01.566Z,1.10
2022-10-08T13:50:06.256Z,0.70
2022-10-08T13:55:22.426Z,1.30
2022-10-08T14:00:25.437Z,0.80
2022-10-08T14:05:31.578Z,1.10
2022-10-08T14:10:34.567Z,1.15
2022-10-08T14:15:37.299Z,1.17
2022-10-08T14:20:41.611Z,1.10
2022-10-08T14:25:44.411Z,1.23
2022-10-08T14:30:47.200Z,1.00
2022-10-08T14:35:54.394Z,1.60
2022-10-08T14:41:00.619Z,1.50
2022-10-08T14:46:03.606Z,1.73
2022-10-08T14:51:08.159Z,1.02
2022-10-08T14:56:12.753Z,1.33
2022-10-08T15:01:15.869Z,0.75
2022-10-08T15:06:20.621Z,1.27
2022-10-08T15:11:23.448Z,1.00
2022-10-08T15:16:26.394Z,1.00
2022-10-08T15:21:30.647Z,1.23
2022-10-08T15:26:33.566Z,1.20
2022-10-08T15:31:36.369Z,1.15
2022-10-08T15:36:40.463Z,1.48
2022-10-08T15:41:44.811Z,1.30
2022-10-08T15:46:47.855Z,1.13
2022-10-08T15:51:51.926Z,1.00
2022-10-08T15:56:54.849Z,0.90
2022-10-08T16:01:58.014Z,1.40
2022-10-08T16:07:02.173Z,1.10
2022-10-08T16:12:05.326Z,2.42
2022-10-08T16:17:08.726Z,1.80
2022-10-08T16:22:12.842Z,1.60
2022-10-08T16:27:15.857Z,1.30
2022-10-08T16:32:18.637Z,1.20
2022-10-08T16:37:22.806Z,2.03
2022-10-08T16:42:25.838Z,1.50
2022-10-08T16:47:28.937Z,1.67
2022-10-08T16:52:33.514Z,2.03
2022-10-08T16:57:36.294Z,1.88
2022-10-08T17:02:39.050Z,2.65
2022-10-08T17:07:43.499Z,1.98
2022-10-08T17:12:46.837Z,2.28
2022-10-08T17:17:54.646Z,2.20
2022-10-08T17:28:02.602Z,2.17
2022-10-08T17:33:05.533Z,1.95
2022-10-08T17:38:09.776Z,3.67
2022-10-08T17:43:12.680Z,3.63
2022-10-08T17:48:15.481Z,2.55
2022-10-08T17:53:19.680Z,3.00
2022-10-08T17:58:22.445Z,3.40
2022-10-08T18:03:25.363Z,2.70
2022-10-08T18:08:29.613Z,2.00
2022-10-08T18:13:33.594Z,2.10
2022-10-08T18:18:36.979Z,3.03
2022-10-08T18:23:42.896Z,3.47
2022-10-08T18:28:48.213Z,3.00
2022-10-08T18:33:52.708Z,4.35
2022-10-08T18:38:58.791Z,6.65
2022-10-08T18:44:04.425Z,5.30
2022-10-08T18:49:08.278Z,4.32
2022-10-08T18:54:13.300Z,3.55
2022-10-08T18:59:17.436Z,2.42
2022-10-08T19:04:24.029Z,2.13
2022-10-08T19:09:28.355Z,1.85
2022-10-08T19:14:31.097Z,1.83
2022-10-08T19:19:33.973Z,2.40
2022-10-08T19:24:41.033Z,2.50
2022-10-08T19:29:44.192Z,2.00
2022-10-08T19:34:47.045Z,3.17
2022-10-08T19:39:51.286Z,2.85
2022-10-08T19:44:54.158Z,2.30
2022-10-08T19:49:57.770Z,2.35
2022-10-08T19:55:02.013Z,2.70
2022-10-08T20:00:05.942Z,2.47
2022-10-08T20:05:09.739Z,3.28
2022-10-08T20:10:16.586Z,3.30
2022-10-08T20:15:19.436Z,3.10
2022-10-08T20:20:33.029Z,2.85
2022-10-08T20:25:37.677Z,4.97
2022-10-08T20:30:42.770Z,2.60
2022-10-08T20:35:45.615Z,2.45
2022-10-08T20:40:49.820Z,2.88
2022-10-08T20:45:52.621Z,2.20
2022-10-08T20:50:55.413Z,2.20
2022-10-08T20:56:03.916Z,2.50
2022-10-08T21:01:08.978Z,4.03
2022-10-08T21:06:14.696Z,2.83
2022-10-08T21:11:21.111Z,2.72
2022-10-08T21:16:25.662Z,2.55
2022-10-08T21:21:30.279Z,4.72
2022-10-08T21:26:36.568Z,2.97
2022-10-08T21:31:41.087Z,3.47
2022-10-08T21:36:44.658Z,4.13
2022-10-08T21:41:51.830Z,3.20
2022-10-08T21:46:54.653Z,4.32
2022-10-08T21:51:58.275Z,2.67
2022-10-08T21:57:02.413Z,2.63
2022-10-08T22:02:05.285Z,2.90
2022-10-08T22:07:08.034Z,3.03
2022-10-08T22:12:12.233Z,3.70
2022-10-08T22:17:15.131Z,3.13
2022-10-08T22:22:17.910Z,2.70
2022-10-08T22:27:21.905Z,2.55
2022-10-08T22:32:24.862Z,2.47
2022-10-08T22:37:27.641Z,3.30
2022-10-08T22:42:31.799Z,3.05
2022-10-08T22:47:34.545Z,2.30
2022-10-08T22:52:37.263Z,2.33
2022-10-08T22:57:41.616Z,2.22
2022-10-08T23:02:44.331Z,2.60
2022-10-08T23:07:47.086Z,2.80
2022-10-08T23:12:52.618Z,3.10
2022-10-08T23:17:55.404Z,3.30
2022-10-08T23:22:58.188Z,2.50
2022-10-08T23:28:02.320Z,2.83
2022-10-08T23:33:05.320Z,2.60
2022-10-08T23:38:10.539Z,3.80
2022-10-08T23:43:14.685Z,2.28
2022-10-08T23:48:17.493Z,2.42
2022-10-08T23:53:21.602Z,2.42
2022-10-08T23:58:25.835Z,2.47
